createdAt,value
2018-01-19T00:00:53.339Z,95758.09
2018-01-19T00:03:23.099Z,95749.29
2018-01-19T00:05:51.297Z,95781.12
2018-01-19T00:08:19.495Z,95787.40
2018-01-19T00:10:47.545Z,95777.34
2018-01-19T00:13:18.574Z,95779.86
2018-01-19T00:15:46.583Z,95800.80
2018-01-19T00:18:14.624Z,95783.23
2018-01-19T00:20:42.631Z,95769.41
2018-01-19T00:23:13.511Z,95776.91
2018-01-19T00:25:41.445Z,95788.23
2018-01-19T00:28:09.513Z,95765.56
2018-01-19T00:30:39.125Z,95760.97
2018-01-19T00:33:15.417Z,95779.82
2018-01-19T00:35:43.345Z,95836.75
2018-01-19T00:38:14.617Z,95843.02
2018-01-19T00:40:42.681Z,95804.52
2018-01-19T00:43:10.711Z,95800.29
2018-01-19T00:45:38.541Z,95783.97
2018-01-19T00:48:06.577Z,95754.59
2018-01-19T00:50:36.471Z,95759.61
2018-01-19T00:53:04.515Z,95765.89
2018-01-19T00:55:32.663Z,95771.33
2018-01-19T00:58:03.341Z,95788.05
2018-01-19T01:00:31.377Z,95793.46
2018-01-19T01:03:00.393Z,95789.25
2018-01-19T01:05:28.363Z,95786.71
2018-01-19T01:07:56.347Z,95781.27
2018-01-19T01:10:24.909Z,95782.46
2018-01-19T01:12:52.851Z,95801.73
2018-01-19T01:15:20.752Z,95804.66
2018-01-19T01:17:48.724Z,95793.30
2018-01-19T01:20:16.792Z,95788.70
2018-01-19T01:22:46.420Z,95805.02
2018-01-19T01:25:14.400Z,95798.30
2018-01-19T01:27:44.041Z,95792.00
2018-01-19T01:30:12.064Z,95793.63
2018-01-19T01:32:41.851Z,95807.41
2018-01-19T01:35:16.889Z,95822.08
2018-01-19T01:37:44.979Z,95805.34
2018-01-19T01:40:13.721Z,95790.67
2018-01-19T01:42:47.126Z,95812.02
2018-01-19T01:45:15.140Z,95821.18
2018-01-19T01:47:43.395Z,95796.48
2018-01-19T01:50:11.603Z,95798.97
2018-01-19T01:52:39.878Z,95788.48
2018-01-19T01:55:08.057Z,95786.39
2018-01-19T01:57:36.028Z,95772.56
2018-01-19T02:00:04.737Z,95789.30
2018-01-19T02:02:34.304Z,95780.95
2018-01-19T02:05:02.290Z,95778.45
2018-01-19T02:07:30.166Z,95762.09
2018-01-19T02:09:58.143Z,95761.67
2018-01-19T02:12:28.580Z,95760.00
2018-01-19T02:14:59.162Z,95750.38
2018-01-19T02:17:28.591Z,95753.35
2018-01-19T02:19:57.200Z,95750.01
2018-01-19T02:22:25.092Z,95759.23
2018-01-19T02:24:53.058Z,95754.20
2018-01-19T02:27:21.663Z,95755.08
2018-01-19T02:29:51.347Z,95763.84
2018-01-19T02:32:19.330Z,95764.69
2018-01-19T02:34:47.286Z,95750.06
2018-01-19T02:37:15.152Z,95752.13
2018-01-19T02:39:44.564Z,95741.66
2018-01-19T02:42:12.742Z,95732.45
2018-01-19T02:44:40.710Z,95732.86
2018-01-19T02:47:14.776Z,95741.22
2018-01-19T02:49:48.773Z,95741.65
2018-01-19T02:52:19.448Z,95744.59
2018-01-19T02:54:47.501Z,95742.89
2018-01-19T02:57:23.286Z,95740.00
2018-01-19T02:59:51.138Z,95733.29
2018-01-19T03:02:19.876Z,95732.05
2018-01-19T03:04:47.884Z,95728.27
2018-01-19T03:07:15.996Z,95738.31
2018-01-19T03:09:46.961Z,95740.00
2018-01-19T03:12:21.131Z,95735.41
2018-01-19T03:14:49.022Z,95746.72
2018-01-19T03:17:18.750Z,95737.52
2018-01-19T03:19:46.836Z,95743.41
2018-01-19T03:22:16.294Z,95743.00
2018-01-19T03:24:44.325Z,95759.36
2018-01-19T03:27:12.367Z,95753.50
2018-01-19T03:29:41.862Z,95733.44
2018-01-19T03:32:09.744Z,95749.79
2018-01-19T03:34:37.818Z,95749.01
2018-01-19T03:37:06.824Z,95735.61
2018-01-19T03:39:35.700Z,95725.59
2018-01-19T03:42:03.679Z,95723.90
2018-01-19T03:44:31.752Z,95739.86
2018-01-19T03:46:59.737Z,95747.47
2018-01-19T03:49:27.706Z,95755.00
2018-01-19T03:51:57.402Z,95753.28
2018-01-19T03:54:25.384Z,95773.38
2018-01-19T03:56:53.370Z,95778.81
2018-01-19T03:59:21.332Z,95758.22
2018-01-19T04:01:51.162Z,95746.03
2018-01-19T04:04:19.144Z,95761.09
2018-01-19T04:06:47.086Z,95755.21
2018-01-19T04:09:15.164Z,95751.41
2018-01-19T04:11:43.786Z,95762.69
2018-01-19T04:14:13.364Z,95764.37
2018-01-19T04:16:41.436Z,95769.38
2018-01-19T04:19:11.018Z,95792.41
2018-01-19T04:21:39.760Z,95793.23
2018-01-19T04:24:07.706Z,95797.84
2018-01-19T04:26:35.884Z,95781.95
2018-01-19T04:29:06.402Z,95773.17
2018-01-19T04:31:34.384Z,95790.80
2018-01-19T04:34:04.235Z,95788.73
2018-01-19T04:36:33.863Z,95812.59
2018-01-19T04:39:01.990Z,95851.09
2018-01-19T04:41:29.912Z,95857.25
2018-01-19T04:43:57.904Z,95854.63
2018-01-19T04:46:25.982Z,95851.36
2018-01-19T04:48:54.718Z,95862.00
2018-01-19T04:51:23.419Z,95875.20
2018-01-19T04:53:54.324Z,95880.86
2018-01-19T04:56:22.400Z,95881.69
2018-01-19T04:58:50.216Z,95885.33
2018-01-19T05:01:18.334Z,95891.56
2018-01-19T05:03:46.330Z,95891.05
2018-01-19T05:06:14.402Z,95893.59
2018-01-19T05:08:42.476Z,95903.16
2018-01-19T05:11:10.660Z,95901.06
2018-01-19T05:13:38.622Z,95903.91
2018-01-19T05:16:09.634Z,95909.38
2018-01-19T05:18:37.674Z,95911.94
2018-01-19T05:21:07.338Z,95908.63
2018-01-19T05:23:35.282Z,95896.55
2018-01-19T05:26:03.274Z,95909.11
2018-01-19T05:28:32.916Z,95917.41
2018-01-19T05:31:02.582Z,95927.48
2018-01-19T05:33:30.688Z,95927.78
2018-01-19T05:35:58.566Z,95929.44
2018-01-19T05:38:27.378Z,95929.00
2018-01-19T05:40:55.350Z,95924.45
2018-01-19T05:43:23.292Z,95915.76
2018-01-19T05:45:51.269Z,95923.78
2018-01-19T05:48:19.251Z,95934.66
2018-01-19T05:50:47.216Z,95942.69
2018-01-19T05:53:15.402Z,95942.38
2018-01-19T05:55:47.287Z,95950.32
2018-01-19T05:58:16.894Z,95949.09
2018-01-19T06:00:44.936Z,95951.20
2018-01-19T06:03:13.515Z,95956.98
2018-01-19T06:05:41.602Z,95977.05
2018-01-19T06:08:11.230Z,95971.18
2018-01-19T06:10:39.163Z,95981.27
2018-01-19T06:15:39.735Z,95975.80
2018-01-19T06:18:07.814Z,95996.28
2018-01-19T06:20:35.684Z,95991.70
2018-01-19T06:23:05.287Z,95992.13
2018-01-19T06:25:33.988Z,96002.55
2018-01-19T06:28:01.948Z,95998.84
2018-01-19T06:30:30.028Z,96001.73
2018-01-19T06:32:57.893Z,96016.31
2018-01-19T06:35:29.345Z,96024.72
2018-01-19T06:37:57.840Z,96029.25
2018-01-19T06:40:27.423Z,96039.25
2018-01-19T06:42:55.511Z,96037.63
2018-01-19T06:45:24.793Z,96037.59
2018-01-19T06:47:55.776Z,96052.64
2018-01-19T06:50:24.858Z,96059.34
2018-01-19T06:52:55.622Z,96056.84
2018-01-19T06:55:28.212Z,96055.55
2018-01-19T06:57:57.955Z,96067.27
2018-01-19T07:00:25.981Z,96074.75
2018-01-19T07:02:55.579Z,96070.11
2018-01-19T07:05:23.564Z,96082.28
2018-01-19T07:07:53.355Z,96099.47
2018-01-19T07:10:21.431Z,96098.64
2018-01-19T07:12:49.357Z,96103.71
2018-01-19T07:15:17.279Z,96107.02
2018-01-19T07:17:45.362Z,96124.59
2018-01-19T07:20:15.211Z,96132.55
2018-01-19T07:22:44.256Z,96140.93
2018-01-19T07:25:13.671Z,96144.27
2018-01-19T07:27:41.751Z,96147.87
2018-01-19T07:30:09.606Z,96147.50
2018-01-19T07:32:37.595Z,96149.85
2018-01-19T07:35:05.672Z,96174.53
2018-01-19T07:37:33.737Z,96178.66
2018-01-19T07:40:03.469Z,96186.54
2018-01-19T07:42:32.252Z,96192.25
2018-01-19T07:45:00.311Z,96199.64
2018-01-19T07:47:28.198Z,96188.66
2018-01-19T07:49:56.253Z,96199.50
2018-01-19T07:52:28.917Z,96212.10
2018-01-19T07:54:57.107Z,96218.50
2018-01-19T07:57:26.771Z,96231.47
2018-01-19T07:59:54.999Z,96240.73
2018-01-19T08:02:23.080Z,96243.64
2018-01-19T08:04:52.771Z,96251.27
2018-01-19T08:07:20.961Z,96258.72
2018-01-19T08:09:50.568Z,96260.72
2018-01-19T08:12:18.769Z,96267.92
2018-01-19T08:14:51.243Z,96279.20
2018-01-19T08:17:19.423Z,96282.00
2018-01-19T08:19:47.281Z,96293.28
2018-01-19T08:22:15.363Z,96309.47
2018-01-19T08:24:43.425Z,96312.33
2018-01-19T08:27:13.009Z,96323.94
2018-01-19T08:29:42.031Z,96325.47
2018-01-19T08:32:10.104Z,96332.48
2018-01-19T08:34:38.075Z,96346.62
2018-01-19T08:37:06.251Z,96361.49
2018-01-19T08:39:35.869Z,96362.78
2018-01-19T08:42:06.808Z,96371.67
2018-01-19T08:44:37.579Z,96378.40
2018-01-19T08:47:06.465Z,96386.34
2018-01-19T08:49:34.515Z,96391.02
2018-01-19T08:52:02.497Z,96399.35
2018-01-19T08:54:30.674Z,96413.03
2018-01-19T08:57:00.891Z,96409.70
2018-01-19T08:59:29.590Z,96418.12
2018-01-19T09:01:57.443Z,96416.55
2018-01-19T09:04:25.423Z,96421.09
2018-01-19T09:06:53.273Z,96426.93
2018-01-19T09:09:21.259Z,96437.42
2018-01-19T09:11:49.232Z,96439.58
2018-01-19T09:14:17.980Z,96447.45
2018-01-19T09:16:47.784Z,96446.63
2018-01-19T09:19:15.782Z,96461.20
2018-01-19T09:21:43.980Z,96455.52
2018-01-19T09:24:12.336Z,96455.23
2018-01-19T09:26:42.835Z,96457.71
2018-01-19T09:29:11.073Z,96462.33
2018-01-19T09:31:40.276Z,96473.62
2018-01-19T09:34:23.193Z,96489.05
2018-01-19T09:36:51.164Z,96481.96
2018-01-19T09:39:19.887Z,96471.69
2018-01-19T09:41:47.794Z,96479.52
2018-01-19T09:44:15.860Z,96470.58
2018-01-19T09:46:43.982Z,96473.23
2018-01-19T09:49:13.684Z,96469.19
2018-01-19T09:51:41.822Z,96467.18
2018-01-19T09:54:09.779Z,96464.03
2018-01-19T09:56:39.491Z,96470.16
2018-01-19T09:59:07.963Z,96465.41
2018-01-19T10:01:36.014Z,96465.37
2018-01-19T10:04:03.992Z,96468.67
2018-01-19T10:06:32.027Z,96464.02
2018-01-19T10:08:59.933Z,96466.64
2018-01-19T10:11:28.004Z,96454.42
2018-01-19T10:13:56.616Z,96459.73
2018-01-19T10:16:24.568Z,96454.99
2018-01-19T10:18:52.632Z,96454.85
2018-01-19T10:21:24.284Z,96439.44
2018-01-19T10:23:52.260Z,96455.86
2018-01-19T10:26:20.144Z,96455.56
2018-01-19T10:28:51.894Z,96448.97
2018-01-19T10:31:19.772Z,96451.19
2018-01-19T10:33:49.381Z,96486.40
2018-01-19T10:36:17.448Z,96440.00
2018-01-19T10:38:45.518Z,96444.59
2018-01-19T10:41:15.835Z,96453.15
2018-01-19T10:43:43.871Z,96445.75
2018-01-19T10:46:14.779Z,96438.32
2018-01-19T10:48:42.840Z,96444.67
2018-01-19T10:51:10.808Z,96441.80
2018-01-19T10:53:38.789Z,96450.45
2018-01-19T10:56:06.964Z,96448.77
2018-01-19T10:58:35.663Z,96444.67
2018-01-19T11:01:03.724Z,96455.64
2018-01-19T11:03:31.697Z,96454.78
2018-01-19T11:06:00.375Z,96452.95
2018-01-19T11:08:29.096Z,96451.73
2018-01-19T11:10:58.080Z,96444.44
2018-01-19T11:13:26.064Z,96447.55
2018-01-19T11:15:54.220Z,96448.41
2018-01-19T11:18:26.865Z,96445.16
2018-01-19T11:20:55.518Z,96445.86
2018-01-19T11:23:23.496Z,96446.72
2018-01-19T11:25:51.536Z,96436.17
2018-01-19T11:28:19.606Z,96449.00
2018-01-19T11:30:47.787Z,96451.55
2018-01-19T11:33:15.879Z,96448.97
2018-01-19T11:35:45.730Z,96456.03
2018-01-19T11:38:15.378Z,96449.30
2018-01-19T11:40:43.462Z,96448.47
2018-01-19T11:43:11.513Z,96440.14
2018-01-19T11:45:39.521Z,96444.01
2018-01-19T11:48:07.560Z,96435.41
2018-01-19T11:50:38.074Z,96428.57
2018-01-19T11:53:09.989Z,96413.78
2018-01-19T11:55:39.790Z,96411.37
2018-01-19T11:58:08.512Z,96413.14
2018-01-19T12:00:36.368Z,96403.89
2018-01-19T12:03:04.433Z,96403.88
2018-01-19T12:05:32.487Z,96400.59
2018-01-19T12:08:01.242Z,96407.03
2018-01-19T12:10:32.207Z,96401.20
2018-01-19T12:13:00.312Z,96397.56
2018-01-19T12:15:28.388Z,96396.13
2018-01-19T12:17:58.332Z,96390.34
2018-01-19T12:20:27.535Z,96385.45
2018-01-19T12:22:55.586Z,96399.04
2018-01-19T12:25:23.706Z,96389.10
2018-01-19T12:27:53.356Z,96384.15
2018-01-19T12:30:21.397Z,96378.30
2018-01-19T12:32:49.489Z,96394.27
2018-01-19T12:35:19.034Z,96398.02
2018-01-19T12:37:48.145Z,96386.34
2018-01-19T12:40:26.132Z,96386.61
2018-01-19T12:42:56.867Z,96392.50
2018-01-19T12:45:24.940Z,96395.47
2018-01-19T12:47:53.014Z,96374.19
2018-01-19T12:50:20.918Z,96377.88
2018-01-19T12:52:55.093Z,96382.89
2018-01-19T12:55:23.567Z,96384.07
2018-01-19T12:57:52.771Z,96388.17
2018-01-19T13:00:20.778Z,96377.22
2018-01-19T13:02:48.736Z,96380.12
2018-01-19T13:05:16.678Z,96375.41
2018-01-19T13:07:49.360Z,96381.27
2018-01-19T13:10:20.954Z,96383.04
2018-01-19T13:12:48.924Z,96382.20
2018-01-19T13:15:16.799Z,96383.06
2018-01-19T13:17:48.130Z,96383.41
2018-01-19T13:20:22.253Z,96388.05
2018-01-19T13:22:51.360Z,96383.81
2018-01-19T13:25:22.126Z,96377.92
2018-01-19T13:27:50.154Z,96379.48
2018-01-19T13:30:21.096Z,96390.42
2018-01-19T13:32:48.964Z,96377.77
2018-01-19T13:35:22.979Z,96387.38
2018-01-19T13:37:51.052Z,96374.45
2018-01-19T13:40:22.058Z,96387.91
2018-01-19T13:42:50.069Z,96377.34
2018-01-19T13:45:20.592Z,96384.83
2018-01-19T13:47:48.582Z,96390.31
2018-01-19T13:50:16.565Z,96391.17
2018-01-19T13:52:47.599Z,96379.43
2018-01-19T13:55:15.642Z,96395.30
2018-01-19T13:57:45.363Z,96389.36
2018-01-19T14:00:13.392Z,96396.50
2018-01-19T14:02:41.235Z,96398.13
2018-01-19T14:05:12.244Z,96400.22
2018-01-19T14:07:40.237Z,96403.16
2018-01-19T14:10:08.212Z,96404.91
2018-01-19T14:12:40.896Z,96406.64
2018-01-19T14:15:08.966Z,96404.52
2018-01-19T14:17:42.169Z,96411.97
2018-01-19T14:20:11.848Z,96408.91
2018-01-19T14:22:42.402Z,96416.75
2018-01-19T14:25:16.315Z,96422.52
2018-01-19T14:27:44.464Z,96420.45
2018-01-19T14:30:13.952Z,96419.45
2018-01-19T14:32:41.968Z,96410.97
2018-01-19T14:35:10.051Z,96414.97
2018-01-19T14:37:39.841Z,96416.93
2018-01-19T14:40:13.770Z,96419.33
2018-01-19T14:42:41.746Z,96422.85
2018-01-19T14:45:09.713Z,96423.68
2018-01-19T14:47:40.373Z,96430.42
2018-01-19T14:50:12.550Z,96429.50
2018-01-19T14:52:40.585Z,96432.26
2018-01-19T14:55:14.701Z,96434.55
2018-01-19T14:57:42.780Z,96437.76
2018-01-19T15:00:11.235Z,96437.62
2018-01-19T15:02:40.257Z,96440.77
2018-01-19T15:05:10.983Z,96444.87
2018-01-19T15:07:39.069Z,96446.81
2018-01-19T15:10:10.173Z,96441.33
2018-01-19T15:12:40.086Z,96440.83
2018-01-19T15:15:08.134Z,96446.22
2018-01-19T15:17:36.037Z,96447.02
2018-01-19T15:20:04.057Z,96445.69
2018-01-19T15:22:32.091Z,96453.97
2018-01-19T15:25:00.228Z,96457.64
2018-01-19T15:27:28.376Z,96453.80
2018-01-19T15:29:56.349Z,96455.02
2018-01-19T15:32:26.155Z,96465.35
2018-01-19T15:34:54.314Z,96464.85
2018-01-19T15:37:26.506Z,96460.19
2018-01-19T15:39:54.696Z,96458.36
2018-01-19T15:42:23.678Z,96461.62
2018-01-19T15:44:51.667Z,96459.41
2018-01-19T15:47:21.483Z,96467.28
2018-01-19T15:49:51.168Z,96468.44
2018-01-19T15:52:23.940Z,96462.13
2018-01-19T15:54:53.719Z,96458.72
2018-01-19T15:57:23.694Z,96462.41
2018-01-19T15:59:51.771Z,96463.16
2018-01-19T16:02:19.751Z,96468.50
2018-01-19T16:04:49.351Z,96471.21
2018-01-19T16:07:18.976Z,96468.52
2018-01-19T16:09:48.710Z,96464.28
2018-01-19T16:12:17.657Z,96470.02
2018-01-19T16:14:48.243Z,96469.93
2018-01-19T16:17:16.386Z,96474.44
2018-01-19T16:19:44.461Z,96473.58
2018-01-19T16:22:13.561Z,96474.76
2018-01-19T16:24:43.175Z,96479.26
2018-01-19T16:27:11.832Z,96477.97
2018-01-19T16:29:40.413Z,96484.59
2018-01-19T16:32:08.237Z,96476.98
2018-01-19T16:34:35.986Z,96484.47
2018-01-19T16:37:04.640Z,96491.09
2018-01-19T16:39:33.238Z,96481.88
2018-01-19T16:42:01.222Z,96486.00
2018-01-19T16:44:29.919Z,96486.34
2018-01-19T16:46:59.355Z,96491.72
2018-01-19T16:49:27.991Z,96491.67
2018-01-19T16:51:57.770Z,96500.02
2018-01-19T16:54:25.636Z,96502.09
2018-01-19T16:56:53.663Z,96504.59
2018-01-19T16:59:21.857Z,96502.05
2018-01-19T17:01:50.865Z,96507.06
2018-01-19T17:04:21.618Z,96499.58
2018-01-19T17:06:49.644Z,96505.41
2018-01-19T17:09:17.820Z,96503.73
2018-01-19T17:11:45.804Z,96504.98
2018-01-19T17:14:15.237Z,96497.85
2018-01-19T17:16:43.241Z,96506.59
2018-01-19T17:19:11.351Z,96503.65
2018-01-19T17:21:40.965Z,96503.27
2018-01-19T17:24:09.981Z,96497.78
2018-01-19T17:26:38.160Z,96496.05
2018-01-19T17:29:06.208Z,96495.97
2018-01-19T17:31:35.790Z,96492.16
2018-01-19T17:34:03.899Z,96490.92
2018-01-19T17:36:32.872Z,96488.33
2018-01-19T17:39:00.769Z,96491.22
2018-01-19T17:41:30.374Z,96494.52
2018-01-19T17:44:02.206Z,96492.52
2018-01-19T17:46:30.376Z,96488.77
2018-01-19T17:48:58.729Z,96483.83
2018-01-19T17:51:28.778Z,96484.73
2018-01-19T17:53:57.010Z,96490.17
2018-01-19T17:56:25.059Z,96491.42
2018-01-19T17:58:53.135Z,96494.76
2018-01-19T18:01:21.220Z,96498.44
2018-01-19T18:03:49.277Z,96495.10
2018-01-19T18:06:17.200Z,96495.03
2018-01-19T18:08:45.432Z,96491.69
2018-01-19T18:11:14.644Z,96484.96
2018-01-19T18:13:43.678Z,96491.66
2018-01-19T18:16:13.552Z,96486.25
2018-01-19T18:18:41.620Z,96492.12
2018-01-19T18:21:10.420Z,96495.45
2018-01-19T18:23:39.196Z,96489.62
2018-01-19T18:26:11.786Z,96492.52
2018-01-19T18:28:39.968Z,96494.55
2018-01-19T18:31:09.771Z,96490.79
2018-01-19T18:33:38.571Z,96498.62
2018-01-19T18:36:09.421Z,96490.28
2018-01-19T18:38:37.578Z,96487.30
2018-01-19T18:41:05.651Z,96479.78
2018-01-19T18:43:35.477Z,96483.50
2018-01-19T18:46:03.549Z,96478.53
2018-01-19T18:48:33.282Z,96477.28
2018-01-19T18:51:01.330Z,96485.62
2018-01-19T18:53:29.516Z,96482.64
2018-01-19T18:55:59.830Z,96474.73
2018-01-19T18:58:28.051Z,96484.32
2018-01-19T19:00:56.395Z,96486.00
2018-01-19T19:03:24.378Z,96488.83
2018-01-19T19:05:52.374Z,96487.14
2018-01-19T19:08:22.536Z,96490.86
2018-01-19T19:10:54.648Z,96494.88
2018-01-19T19:13:22.917Z,96486.06
2018-01-19T19:15:51.000Z,96498.38
2018-01-19T19:18:19.201Z,96501.58
2018-01-19T19:20:48.670Z,96489.31
2018-01-19T19:23:25.355Z,96481.64
2018-01-19T19:25:53.616Z,96474.47
2018-01-19T19:28:22.926Z,96475.73
2018-01-19T19:30:51.099Z,96476.55
2018-01-19T19:33:26.649Z,96466.61
2018-01-19T19:35:54.857Z,96472.44
2018-01-19T19:38:23.133Z,96456.21
2018-01-19T19:40:53.503Z,96460.83
2018-01-19T19:43:22.562Z,96463.68
2018-01-19T19:45:51.524Z,96462.34
2018-01-19T19:48:22.771Z,96460.23
2018-01-19T19:50:51.352Z,96450.52
2018-01-19T19:53:21.555Z,96454.27
2018-01-19T19:55:50.033Z,96451.33
2018-01-19T19:58:19.263Z,96443.00
2018-01-19T20:00:47.467Z,96437.13
2018-01-19T20:03:17.337Z,96425.83
2018-01-19T20:05:46.369Z,96432.08
2018-01-19T20:08:15.583Z,96430.88
2018-01-19T20:10:46.830Z,96430.05
2018-01-19T20:13:15.336Z,96427.98
2018-01-19T20:15:43.972Z,96427.13
2018-01-19T20:18:13.249Z,96430.52
2018-01-19T20:20:43.515Z,96423.84
2018-01-19T20:23:12.534Z,96428.45
2018-01-19T20:25:40.957Z,96424.70
2018-01-19T20:28:15.624Z,96431.00
2018-01-19T20:30:45.904Z,96428.53
2018-01-19T20:33:15.025Z,96426.46
2018-01-19T20:35:44.261Z,96418.59
2018-01-19T20:38:12.756Z,96428.19
2018-01-19T20:40:44.260Z,96429.05
2018-01-19T20:43:13.433Z,96432.80
2018-01-19T20:45:42.481Z,96433.55
2018-01-19T20:48:11.585Z,96432.98
2018-01-19T20:50:39.750Z,96437.13
2018-01-19T20:53:08.076Z,96435.41
2018-01-19T20:55:36.408Z,96434.54
2018-01-19T20:58:04.783Z,96436.19
2018-01-19T21:00:34.795Z,96437.83
2018-01-19T21:03:04.746Z,96435.02
2018-01-19T21:05:35.918Z,96434.59
2018-01-19T21:08:05.176Z,96434.24
2018-01-19T21:10:33.461Z,96432.60
2018-01-19T21:13:02.638Z,96433.93
2018-01-19T21:15:33.497Z,96432.25
2018-01-19T21:18:01.657Z,96426.03
2018-01-19T21:20:31.608Z,96424.00
2018-01-19T21:22:59.963Z,96431.52
2018-01-19T21:25:28.450Z,96431.42
2018-01-19T21:27:56.670Z,96423.84
2018-01-19T21:30:24.917Z,96427.51
2018-01-19T21:32:53.182Z,96423.16
2018-01-19T21:35:21.256Z,96425.92
2018-01-19T21:37:50.146Z,96416.64
2018-01-19T21:40:25.393Z,96411.55
2018-01-19T21:42:55.224Z,96408.14
2018-01-19T21:45:23.595Z,96414.70
2018-01-19T21:47:57.111Z,96412.98
2018-01-19T21:50:28.701Z,96412.12
2018-01-19T21:52:57.090Z,96415.41
2018-01-19T21:55:25.967Z,96414.14
2018-01-19T21:57:56.485Z,96410.35
2018-01-19T22:00:26.190Z,96410.78
2018-01-19T22:02:54.444Z,96410.35
2018-01-19T22:05:41.447Z,96414.06
2018-01-19T22:08:12.263Z,96418.59
2018-01-19T22:10:40.373Z,96415.27
2018-01-19T22:13:08.442Z,96418.59
2018-01-19T22:15:36.583Z,96419.45
2018-01-19T22:18:04.684Z,96418.98
2018-01-19T22:20:32.558Z,96425.33
2018-01-19T22:23:01.950Z,96424.06
2018-01-19T22:25:30.038Z,96420.23
2018-01-19T22:27:58.136Z,96424.06
2018-01-19T22:30:26.082Z,96424.11
2018-01-19T22:32:54.170Z,96421.66
2018-01-19T22:35:22.247Z,96422.56
2018-01-19T22:37:50.320Z,96423.89
2018-01-19T22:40:19.015Z,96431.45
2018-01-19T22:42:47.078Z,96428.55
2018-01-19T22:45:15.290Z,96428.69
2018-01-19T22:47:46.190Z,96431.66
2018-01-19T22:50:16.109Z,96435.89
2018-01-19T22:52:43.985Z,96438.52
2018-01-19T22:55:12.256Z,96439.47
2018-01-19T22:57:40.128Z,96444.17
2018-01-19T23:00:08.115Z,96444.21
2018-01-19T23:02:36.174Z,96456.34
2018-01-19T23:05:09.978Z,96453.45
2018-01-19T23:07:38.246Z,96453.84
2018-01-19T23:10:09.926Z,96457.47
2018-01-19T23:12:39.680Z,96460.70
2018-01-19T23:15:07.698Z,96464.29
2018-01-19T23:17:35.777Z,96469.17
2018-01-19T23:20:07.636Z,96479.05
2018-01-19T23:22:35.622Z,96477.28
2018-01-19T23:25:03.697Z,96481.72
2018-01-19T23:27:31.682Z,96487.45
2018-01-19T23:30:06.698Z,96481.20
2018-01-19T23:32:34.804Z,96487.70
2018-01-19T23:35:04.593Z,96487.27
2018-01-19T23:37:32.670Z,96484.34
2018-01-19T23:40:00.635Z,96485.08
2018-01-19T23:42:28.706Z,96492.10
2018-01-19T23:44:59.443Z,96491.67
2018-01-19T23:47:29.047Z,96490.51
2018-01-19T23:49:58.722Z,96483.86
2018-01-19T23:52:26.742Z,96492.15
2018-01-19T23:54:54.764Z,96485.02
2018-01-19T23:57:24.526Z,96492.92
2018-01-19T23:59:52.628Z,96495.84
